createdAt,value
2022-08-23T00:00:11.995Z,20.63
2022-08-23T00:00:46.890Z,20.63
2022-08-23T00:01:29.633Z,20.67
2022-08-23T00:02:08.218Z,20.69
2022-08-23T00:02:55.995Z,20.73
2022-08-23T00:03:28.211Z,20.70
2022-08-23T00:04:06.759Z,20.67
2022-08-23T00:05:07.701Z,20.68
2022-08-23T00:05:34.463Z,20.65
2022-08-23T00:06:07.342Z,20.72
2022-08-23T00:06:40.514Z,20.71
2022-08-23T00:07:14.700Z,20.71
2022-08-23T00:07:46.619Z,20.78
2022-08-23T00:08:18.602Z,20.76
2022-08-23T00:08:52.402Z,20.81
2022-08-23T00:09:27.124Z,20.77
2022-08-23T00:09:59.386Z,20.81
2022-08-23T00:10:32.567Z,20.82
2022-08-23T00:11:05.525Z,20.91
2022-08-23T00:11:42.242Z,20.79
2022-08-23T00:12:20.019Z,20.81
2022-08-23T00:12:51.956Z,20.70
2022-08-23T00:13:24.189Z,20.66
2022-08-23T00:14:18.488Z,20.71
2022-08-23T00:14:53.316Z,20.78
2022-08-23T00:15:25.404Z,20.81
2022-08-23T00:15:57.371Z,20.80
2022-08-23T00:16:29.401Z,20.78
2022-08-23T00:17:02.283Z,20.72
2022-08-23T00:17:35.036Z,20.77
2022-08-23T00:18:07.148Z,20.77
2022-08-23T00:18:39.163Z,20.73
2022-08-23T00:19:13.459Z,20.72
2022-08-23T00:19:46.051Z,20.72
2022-08-23T00:20:20.333Z,20.73
2022-08-23T00:20:52.714Z,20.71
2022-08-23T00:21:24.876Z,20.71
2022-08-23T00:21:57.078Z,20.68
2022-08-23T00:22:29.335Z,20.66
2022-08-23T00:23:01.376Z,20.63
2022-08-23T00:23:33.356Z,20.61
2022-08-23T00:24:07.541Z,20.64
2022-08-23T00:24:41.034Z,20.67
2022-08-23T00:25:14.477Z,20.69
2022-08-23T00:25:46.398Z,20.70
2022-08-23T00:26:20.719Z,20.74
2022-08-23T00:26:58.499Z,20.75
2022-08-23T00:27:30.761Z,20.70
2022-08-23T00:28:03.064Z,20.68
2022-08-23T00:28:35.221Z,20.71
2022-08-23T00:29:07.431Z,20.72
2022-08-23T00:29:41.218Z,20.73
2022-08-23T00:30:15.132Z,20.74
2022-08-23T00:30:47.100Z,20.73
2022-08-23T00:31:20.133Z,20.75
2022-08-23T00:31:52.644Z,20.71
2022-08-23T00:32:28.937Z,20.66
2022-08-23T00:33:01.302Z,20.72
2022-08-23T00:33:33.255Z,20.76
2022-08-23T00:34:05.372Z,20.69
2022-08-23T00:34:38.260Z,20.69
2022-08-23T00:35:11.767Z,20.67
2022-08-23T00:35:43.680Z,20.67
2022-08-23T00:36:16.006Z,20.69
2022-08-23T00:36:49.528Z,20.72
2022-08-23T00:37:23.507Z,20.74
2022-08-23T00:38:32.054Z,20.73
2022-08-23T00:38:50.671Z,20.66
2022-08-23T00:39:22.655Z,20.58
2022-08-23T00:39:55.144Z,20.55
2022-08-23T00:40:27.331Z,20.61
2022-08-23T00:40:59.539Z,20.62
2022-08-23T00:41:32.555Z,20.66
2022-08-23T00:42:31.228Z,20.70
2022-08-23T00:43:27.292Z,20.68
2022-08-23T00:44:18.587Z,20.62
2022-08-23T00:45:10.014Z,20.64
2022-08-23T00:46:52.873Z,20.68
2022-08-23T00:47:41.440Z,20.70
2022-08-23T00:48:15.772Z,20.68
2022-08-23T00:48:48.210Z,20.71
2022-08-23T00:49:21.668Z,20.74
2022-08-23T00:50:25.947Z,20.76
2022-08-23T00:51:08.273Z,20.77
2022-08-23T00:51:57.650Z,20.81
2022-08-23T00:52:40.222Z,20.83
2022-08-23T00:53:32.247Z,20.75
2022-08-23T00:54:04.683Z,20.73
2022-08-23T00:54:39.426Z,20.75
2022-08-23T00:55:11.802Z,20.78
2022-08-23T00:55:46.743Z,20.82
2022-08-23T00:56:20.879Z,20.73
2022-08-23T00:56:55.409Z,20.70
2022-08-23T00:57:29.043Z,20.73
2022-08-23T00:58:02.399Z,20.75
2022-08-23T00:58:35.109Z,20.68
2022-08-23T00:59:07.721Z,20.64
2022-08-23T00:59:40.264Z,20.66
2022-08-23T01:00:13.151Z,20.67
2022-08-23T01:00:46.639Z,20.70
2022-08-23T01:01:18.756Z,20.71
2022-08-23T01:01:51.252Z,20.61
2022-08-23T01:02:24.098Z,20.57
2022-08-23T01:02:57.761Z,20.57
2022-08-23T01:03:38.758Z,20.64
2022-08-23T01:04:13.144Z,20.64
2022-08-23T01:04:55.856Z,20.58
2022-08-23T01:05:50.371Z,20.54
2022-08-23T01:06:25.543Z,20.51
2022-08-23T01:07:16.075Z,20.46
2022-08-23T01:07:51.980Z,20.31
2022-08-23T01:08:26.634Z,20.35
2022-08-23T01:09:04.034Z,20.37
2022-08-23T01:09:38.382Z,20.43
2022-08-23T01:10:21.023Z,20.51
2022-08-23T01:11:03.717Z,20.52
2022-08-23T01:12:16.395Z,20.51
2022-08-23T01:13:18.178Z,20.51
2022-08-23T01:14:12.013Z,20.46
2022-08-23T01:14:54.319Z,20.32
2022-08-23T01:15:32.973Z,20.30
2022-08-23T01:16:14.319Z,20.43
2022-08-23T01:16:52.142Z,20.45
2022-08-23T01:17:33.786Z,20.43
2022-08-23T01:18:13.103Z,20.40
2022-08-23T01:18:47.812Z,20.39
2022-08-23T01:19:34.105Z,20.31
2022-08-23T01:20:22.535Z,20.32
2022-08-23T01:21:36.609Z,20.29
2022-08-23T01:22:17.210Z,20.40
2022-08-23T01:22:59.601Z,20.39
2022-08-23T01:23:42.508Z,20.26
2022-08-23T01:24:19.077Z,20.31
2022-08-23T01:25:14.922Z,20.28
2022-08-23T01:25:48.098Z,20.31
2022-08-23T01:26:22.292Z,20.30
2022-08-23T01:26:55.265Z,20.25
2022-08-23T01:27:28.030Z,20.32
2022-08-23T01:28:00.597Z,20.21
2022-08-23T01:28:33.678Z,20.14
2022-08-23T01:29:07.333Z,20.08
2022-08-23T01:29:41.051Z,20.17
2022-08-23T01:30:15.313Z,20.14
2022-08-23T01:30:48.946Z,20.00
2022-08-23T01:31:23.970Z,20.02
2022-08-23T01:31:56.592Z,20.15
2022-08-23T01:32:29.908Z,20.09
2022-08-23T01:33:06.287Z,20.08
2022-08-23T01:33:40.440Z,20.10
2022-08-23T01:34:14.649Z,20.12
2022-08-23T01:34:51.623Z,20.16
2022-08-23T01:35:40.649Z,20.12
2022-08-23T01:36:16.171Z,20.10
2022-08-23T01:36:49.115Z,20.00
2022-08-23T01:37:22.445Z,19.96
2022-08-23T01:37:54.714Z,19.97
2022-08-23T01:38:26.973Z,20.01
2022-08-23T01:39:05.343Z,20.10
2022-08-23T01:39:38.098Z,20.03
2022-08-23T01:40:11.023Z,20.02
2022-08-23T01:40:44.858Z,20.03
2022-08-23T01:41:17.112Z,20.07
2022-08-23T01:41:49.401Z,20.12
2022-08-23T01:42:21.379Z,20.09
2022-08-23T01:42:53.353Z,20.15
2022-08-23T01:43:26.439Z,20.14
2022-08-23T01:43:58.685Z,20.18
2022-08-23T01:44:32.098Z,20.21
2022-08-23T01:45:05.449Z,20.22
2022-08-23T01:45:39.821Z,20.26
2022-08-23T01:46:18.149Z,20.31
2022-08-23T01:46:57.837Z,20.37
2022-08-23T01:47:31.879Z,20.29
2022-08-23T01:48:04.421Z,20.23
2022-08-23T01:48:36.845Z,20.20
2022-08-23T01:49:09.094Z,20.13
2022-08-23T01:49:41.607Z,20.18
2022-08-23T01:50:16.167Z,20.18
2022-08-23T01:50:48.521Z,20.20
2022-08-23T01:51:21.598Z,20.24
2022-08-23T01:51:55.300Z,20.20
2022-08-23T01:52:28.059Z,20.17
2022-08-23T01:53:00.814Z,20.23
2022-08-23T01:53:34.238Z,20.22
2022-08-23T01:54:06.557Z,20.23
2022-08-23T01:54:40.968Z,20.27
2022-08-23T01:55:13.053Z,20.31
2022-08-23T01:55:45.403Z,20.28
2022-08-23T01:56:31.476Z,20.28
2022-08-23T01:57:12.025Z,20.33
2022-08-23T01:57:48.268Z,20.46
2022-08-23T01:58:22.237Z,20.37
2022-08-23T01:58:54.293Z,20.35
2022-08-23T01:59:28.243Z,20.36
2022-08-23T02:00:00.682Z,20.42
2022-08-23T02:00:36.915Z,20.41
2022-08-23T02:01:09.172Z,20.38
2022-08-23T02:01:41.301Z,20.45
2022-08-23T02:02:13.366Z,20.42
2022-08-23T02:02:47.056Z,20.40
2022-08-23T02:03:19.632Z,20.41
2022-08-23T02:04:00.754Z,20.42
2022-08-23T02:04:37.010Z,20.45
2022-08-23T02:05:10.163Z,20.48
2022-08-23T02:05:45.877Z,20.49
2022-08-23T02:06:18.558Z,20.46
2022-08-23T02:06:50.595Z,20.57
2022-08-23T02:07:29.704Z,20.57
2022-08-23T02:08:21.765Z,20.55
2022-08-23T02:09:04.445Z,20.56
2022-08-23T02:09:36.517Z,20.55
2022-08-23T02:10:09.574Z,20.59
2022-08-23T02:10:42.305Z,20.61
2022-08-23T02:11:17.624Z,20.64
2022-08-23T02:11:51.570Z,20.61
2022-08-23T02:12:24.516Z,20.58
2022-08-23T02:12:59.774Z,20.51
2022-08-23T02:13:32.353Z,20.43
2022-08-23T02:14:08.301Z,20.44
2022-08-23T02:14:43.733Z,20.42
2022-08-23T02:15:19.976Z,20.41
2022-08-23T02:15:52.568Z,20.44
2022-08-23T02:16:33.793Z,20.44
2022-08-23T02:17:06.029Z,20.39
2022-08-23T02:17:38.174Z,20.30
2022-08-23T02:18:11.174Z,20.38
2022-08-23T02:18:47.262Z,20.36
2022-08-23T02:19:20.553Z,20.36
2022-08-23T02:19:52.616Z,20.38
2022-08-23T02:20:24.665Z,20.41
2022-08-23T02:20:56.727Z,20.44
2022-08-23T02:21:31.540Z,20.42
2022-08-23T02:22:05.606Z,20.50
2022-08-23T02:22:39.680Z,20.48
2022-08-23T02:23:11.870Z,20.38
2022-08-23T02:23:43.823Z,20.39
2022-08-23T02:24:20.110Z,20.37
2022-08-23T02:24:52.038Z,20.41
2022-08-23T02:25:24.051Z,20.35
2022-08-23T02:25:56.806Z,20.43
2022-08-23T02:26:31.156Z,20.35
2022-08-23T02:27:05.332Z,20.29
2022-08-23T02:27:38.993Z,20.22
2022-08-23T02:28:17.061Z,20.34
2022-08-23T02:28:52.376Z,20.30
2022-08-23T02:29:29.904Z,20.30
2022-08-23T02:30:03.733Z,20.31
2022-08-23T02:30:38.602Z,20.26
2022-08-23T02:31:13.288Z,20.30
2022-08-23T02:31:46.892Z,20.24
2022-08-23T02:32:19.499Z,20.24
2022-08-23T02:32:52.653Z,20.28
2022-08-23T02:33:25.793Z,20.30
2022-08-23T02:33:58.179Z,20.33
2022-08-23T02:34:32.381Z,20.34
2022-08-23T02:35:06.101Z,20.34
2022-08-23T02:35:38.721Z,20.35
2022-08-23T02:36:10.649Z,20.32
2022-08-23T02:36:44.085Z,20.36
2022-08-23T02:37:16.219Z,20.39
2022-08-23T02:37:48.833Z,20.32
2022-08-23T02:38:21.202Z,20.38
2022-08-23T02:38:54.763Z,20.36
2022-08-23T02:39:27.730Z,20.38
2022-08-23T02:39:59.939Z,20.41
2022-08-23T02:40:32.485Z,20.43
2022-08-23T02:41:04.842Z,20.47
2022-08-23T02:41:41.374Z,20.51
2022-08-23T02:42:15.048Z,20.53
2022-08-23T02:42:48.092Z,20.58
2022-08-23T02:43:20.831Z,20.57
2022-08-23T02:43:53.986Z,20.57
2022-08-23T02:44:26.760Z,20.60
2022-08-23T02:45:01.353Z,20.57
2022-08-23T02:45:34.707Z,20.53
2022-08-23T02:46:06.799Z,20.61
2022-08-23T02:46:40.715Z,20.45
2022-08-23T02:47:12.720Z,20.32
2022-08-23T02:47:46.391Z,20.21
2022-08-23T02:48:19.841Z,20.23
2022-08-23T02:48:56.400Z,20.29
2022-08-23T02:49:29.507Z,20.40
2022-08-23T02:50:01.417Z,20.43
2022-08-23T02:50:33.738Z,20.37
2022-08-23T02:51:08.576Z,20.38
2022-08-23T02:51:41.632Z,20.35
2022-08-23T02:52:13.657Z,20.35
2022-08-23T02:52:45.706Z,20.35
2022-08-23T02:53:18.265Z,20.37
2022-08-23T02:53:50.276Z,20.36
2022-08-23T02:54:23.438Z,20.39
2022-08-23T02:54:58.118Z,20.39
2022-08-23T02:55:30.878Z,20.38
2022-08-23T02:56:03.557Z,20.35
2022-08-23T02:56:36.043Z,20.35
2022-08-23T02:57:08.021Z,20.39
2022-08-23T02:57:40.135Z,20.43
2022-08-23T02:58:13.330Z,20.46
2022-08-23T02:58:48.012Z,20.61
2022-08-23T02:59:26.663Z,20.61
2022-08-23T02:59:58.580Z,20.60
2022-08-23T03:00:30.513Z,20.59
2022-08-23T03:01:03.115Z,20.47
2022-08-23T03:01:38.294Z,20.41
2022-08-23T03:02:13.533Z,20.46
2022-08-23T03:02:46.692Z,20.49
2022-08-23T03:03:19.095Z,20.47
2022-08-23T03:03:55.741Z,20.44
2022-08-23T03:04:28.664Z,20.48
2022-08-23T03:05:00.779Z,20.52
2022-08-23T03:05:33.377Z,20.50
2022-08-23T03:06:25.265Z,20.55
2022-08-23T03:06:57.967Z,20.51
2022-08-23T03:07:31.158Z,20.44
2022-08-23T03:08:03.894Z,20.38
2022-08-23T03:08:39.255Z,20.38
2022-08-23T03:09:11.723Z,20.35
2022-08-23T03:09:44.108Z,20.31
2022-08-23T03:10:16.996Z,20.34
2022-08-23T03:10:52.670Z,20.42
2022-08-23T03:11:25.393Z,20.39
2022-08-23T03:11:57.764Z,20.44
2022-08-23T03:12:29.940Z,20.39
2022-08-23T03:13:02.752Z,20.33
2022-08-23T03:13:34.785Z,20.35
2022-08-23T03:14:06.987Z,20.33
2022-08-23T03:14:38.932Z,20.34
2022-08-23T03:15:12.047Z,20.32
2022-08-23T03:15:44.059Z,20.30
2022-08-23T03:16:16.692Z,20.31
2022-08-23T03:16:48.884Z,20.34
2022-08-23T03:17:20.919Z,20.38
2022-08-23T03:17:53.339Z,20.42
2022-08-23T03:18:25.347Z,20.45
2022-08-23T03:18:57.624Z,20.55
2022-08-23T03:19:29.656Z,20.42
2022-08-23T03:20:01.669Z,20.37
2022-08-23T03:20:36.805Z,20.34
2022-08-23T03:21:09.470Z,20.31
2022-08-23T03:21:43.392Z,20.29
2022-08-23T03:22:16.321Z,20.29
2022-08-23T03:22:54.417Z,20.31
2022-08-23T03:23:27.125Z,20.28
2022-08-23T03:23:59.782Z,20.28
2022-08-23T03:24:32.001Z,20.30
2022-08-23T03:25:06.116Z,20.25
2022-08-23T03:25:41.315Z,20.29
2022-08-23T03:26:15.750Z,20.27
2022-08-23T03:26:47.754Z,20.36
2022-08-23T03:27:20.032Z,20.34
2022-08-23T03:27:52.343Z,20.34
2022-08-23T03:28:24.670Z,20.34
2022-08-23T03:28:57.490Z,20.31
2022-08-23T03:29:31.944Z,20.30
2022-08-23T03:30:06.019Z,20.26
2022-08-23T03:30:46.360Z,20.19
2022-08-23T03:31:19.491Z,20.18
2022-08-23T03:31:51.923Z,20.22
2022-08-23T03:32:26.750Z,20.10
2022-08-23T03:33:00.380Z,20.13
2022-08-23T03:33:33.338Z,20.09
2022-08-23T03:34:06.076Z,20.15
2022-08-23T03:34:38.745Z,20.22
2022-08-23T03:35:15.207Z,20.23
2022-08-23T03:35:49.378Z,20.18
2022-08-23T03:36:28.039Z,20.17
2022-08-23T03:37:01.221Z,20.09
2022-08-23T03:37:33.523Z,20.05
2022-08-23T03:38:05.706Z,20.08
2022-08-23T03:38:39.794Z,20.12
2022-08-23T03:39:16.375Z,20.12
2022-08-23T03:39:48.373Z,20.07
2022-08-23T03:40:22.917Z,20.12
2022-08-23T03:40:55.279Z,20.17
2022-08-23T03:41:28.468Z,20.22
2022-08-23T03:42:01.236Z,20.24
2022-08-23T03:42:33.925Z,20.21
2022-08-23T03:43:06.853Z,20.21
2022-08-23T03:43:39.354Z,20.24
2022-08-23T03:44:11.496Z,20.20
2022-08-23T03:44:44.147Z,20.20
2022-08-23T03:45:18.840Z,20.18
2022-08-23T03:45:50.793Z,20.20
2022-08-23T03:46:23.991Z,20.20
2022-08-23T03:46:56.347Z,20.23
2022-08-23T03:47:30.150Z,20.24
2022-08-23T03:48:03.694Z,20.27
2022-08-23T03:48:37.682Z,20.31
2022-08-23T03:49:10.209Z,20.32
2022-08-23T03:49:43.953Z,20.33
2022-08-23T03:50:15.950Z,20.38
2022-08-23T03:50:48.738Z,20.38
2022-08-23T03:51:22.591Z,20.47
2022-08-23T03:51:54.869Z,20.52
2022-08-23T03:52:26.779Z,20.55
2022-08-23T03:52:58.888Z,20.53
2022-08-23T03:53:30.805Z,20.45
2022-08-23T03:54:03.301Z,20.42
2022-08-23T03:54:35.753Z,20.35
2022-08-23T03:55:08.077Z,20.37
2022-08-23T03:55:43.136Z,20.36
2022-08-23T03:56:32.548Z,20.39
2022-08-23T03:57:09.537Z,20.34
2022-08-23T03:57:41.624Z,20.36
2022-08-23T03:58:13.546Z,20.37
2022-08-23T03:58:45.490Z,20.37
2022-08-23T03:59:17.864Z,20.44
2022-08-23T03:59:50.230Z,20.37
2022-08-23T04:00:22.902Z,20.30
2022-08-23T04:00:57.715Z,20.33
2022-08-23T04:01:30.494Z,20.20
2022-08-23T04:02:02.599Z,20.14
2022-08-23T04:02:35.167Z,20.10
2022-08-23T04:03:07.164Z,20.08
2022-08-23T04:03:41.434Z,20.16
2022-08-23T04:04:14.596Z,20.22
2022-08-23T04:04:47.766Z,20.23
2022-08-23T04:05:23.034Z,20.14
2022-08-23T04:05:55.946Z,19.94
2022-08-23T04:06:28.536Z,19.92
2022-08-23T04:07:01.062Z,19.95
2022-08-23T04:07:33.394Z,19.99
2022-08-23T04:08:11.683Z,20.05
2022-08-23T04:08:45.363Z,20.15
2022-08-23T04:09:17.942Z,20.17
2022-08-23T04:09:54.988Z,20.20
2022-08-23T04:10:28.184Z,20.23
2022-08-23T04:11:01.146Z,20.24
2022-08-23T04:11:33.486Z,20.27
2022-08-23T04:12:17.679Z,20.31
2022-08-23T04:12:50.075Z,20.32
2022-08-23T04:13:24.759Z,20.39
2022-08-23T04:13:59.704Z,20.38
2022-08-23T04:14:31.696Z,20.35
2022-08-23T04:15:04.412Z,20.32
2022-08-23T04:15:39.796Z,20.36
2022-08-23T04:16:15.722Z,20.36
2022-08-23T04:16:48.484Z,20.47
2022-08-23T04:17:21.571Z,20.47
2022-08-23T04:17:53.595Z,20.43
2022-08-23T04:18:30.018Z,20.44
2022-08-23T04:19:01.975Z,20.43
2022-08-23T04:19:36.165Z,20.41
2022-08-23T04:20:09.028Z,20.43
2022-08-23T04:20:43.015Z,20.43
2022-08-23T04:21:19.272Z,20.47
2022-08-23T04:21:52.679Z,20.42
2022-08-23T04:22:24.876Z,20.32
2022-08-23T04:22:57.719Z,20.31
2022-08-23T04:23:30.380Z,20.32
2022-08-23T04:24:02.522Z,20.35
2022-08-23T04:24:34.532Z,20.39
2022-08-23T04:25:23.103Z,20.28
2022-08-23T04:25:58.841Z,20.20
2022-08-23T04:26:31.328Z,20.23
2022-08-23T04:27:03.492Z,20.29
2022-08-23T04:27:36.129Z,20.34
2022-08-23T04:28:08.971Z,20.38
2022-08-23T04:28:41.001Z,20.38
2022-08-23T04:29:24.867Z,20.38
2022-08-23T04:30:06.637Z,20.40
2022-08-23T04:30:40.483Z,20.41
2022-08-23T04:31:15.403Z,20.47
2022-08-23T04:31:48.886Z,20.48
2022-08-23T04:32:28.127Z,20.42
2022-08-23T04:33:01.743Z,20.44
2022-08-23T04:33:34.513Z,20.42
2022-08-23T04:34:08.410Z,20.41
2022-08-23T04:34:45.331Z,20.42
2022-08-23T04:35:18.146Z,20.39
2022-08-23T04:35:50.244Z,20.43
2022-08-23T04:36:23.680Z,20.43
2022-08-23T04:36:56.470Z,20.44
2022-08-23T04:37:29.067Z,20.43
2022-08-23T04:38:01.420Z,20.52
2022-08-23T04:38:34.533Z,20.55
2022-08-23T04:39:07.977Z,20.52
2022-08-23T04:39:59.026Z,20.46
2022-08-23T04:40:50.875Z,20.47
2022-08-23T04:41:41.225Z,20.56
2022-08-23T04:42:21.732Z,20.54
2022-08-23T04:42:56.015Z,20.53
2022-08-23T04:43:28.542Z,20.46
2022-08-23T04:44:00.544Z,20.37
2022-08-23T04:44:32.773Z,20.45
2022-08-23T04:45:05.428Z,20.41
2022-08-23T04:45:39.200Z,20.31
2022-08-23T04:46:15.471Z,20.31
2022-08-23T04:46:48.853Z,20.30
2022-08-23T04:47:21.709Z,20.36
2022-08-23T04:47:54.556Z,20.28
2022-08-23T04:48:26.962Z,20.28
2022-08-23T04:48:59.695Z,20.30
2022-08-23T04:49:32.630Z,20.24
2022-08-23T04:50:05.767Z,20.26
2022-08-23T04:50:38.202Z,20.30
2022-08-23T04:51:12.350Z,20.37
2022-08-23T04:51:44.717Z,20.36
2022-08-23T04:52:26.353Z,20.41
2022-08-23T04:52:59.991Z,20.49
2022-08-23T04:53:35.391Z,20.51
2022-08-23T04:54:08.428Z,20.56
2022-08-23T04:54:42.008Z,20.58
2022-08-23T04:55:14.485Z,20.53
2022-08-23T04:55:47.191Z,20.47
2022-08-23T04:56:19.118Z,20.41
2022-08-23T04:56:51.939Z,20.44
2022-08-23T04:57:27.443Z,20.42
2022-08-23T04:57:59.863Z,20.47
2022-08-23T04:58:34.798Z,20.42
2022-08-23T04:59:08.486Z,20.32
2022-08-23T04:59:45.847Z,20.33
2022-08-23T05:00:18.336Z,20.39
2022-08-23T05:00:53.373Z,20.37
2022-08-23T05:01:25.919Z,20.37
2022-08-23T05:01:58.128Z,20.37
2022-08-23T05:02:30.249Z,20.37
2022-08-23T05:03:02.673Z,20.33
2022-08-23T05:03:35.718Z,20.44
2022-08-23T05:04:08.497Z,20.45
2022-08-23T05:04:42.177Z,20.40
2022-08-23T05:05:14.660Z,20.45
2022-08-23T05:05:47.184Z,20.51
2022-08-23T05:06:19.252Z,20.57
2022-08-23T05:06:52.226Z,20.54
2022-08-23T05:07:41.618Z,20.43
2022-08-23T05:08:15.856Z,20.31
2022-08-23T05:08:48.036Z,20.22
2022-08-23T05:09:20.906Z,20.24
2022-08-23T05:09:53.079Z,20.36
2022-08-23T05:10:25.257Z,20.45
2022-08-23T05:11:10.075Z,20.43
2022-08-23T05:11:42.153Z,20.48
2022-08-23T05:12:14.413Z,20.52
2022-08-23T05:12:46.713Z,20.53
2022-08-23T05:13:19.861Z,20.53
2022-08-23T05:13:51.799Z,20.60
2022-08-23T05:14:25.030Z,20.65
2022-08-23T05:14:57.287Z,20.66
2022-08-23T05:15:29.430Z,20.71
2022-08-23T05:16:04.787Z,20.76
2022-08-23T05:16:37.346Z,20.77
2022-08-23T05:17:10.130Z,20.82
2022-08-23T05:17:42.753Z,20.77
2022-08-23T05:18:14.953Z,20.75
2022-08-23T05:18:47.603Z,20.76
2022-08-23T05:19:19.734Z,20.76
2022-08-23T05:19:52.358Z,20.74
2022-08-23T05:20:24.632Z,20.69
2022-08-23T05:20:56.659Z,20.70
2022-08-23T05:21:30.755Z,20.64
2022-08-23T05:22:02.711Z,20.68
2022-08-23T05:22:39.128Z,20.64
2022-08-23T05:23:12.542Z,20.53
2022-08-23T05:23:44.970Z,20.60
2022-08-23T05:24:24.606Z,20.61
2022-08-23T05:24:57.661Z,20.65
2022-08-23T05:25:49.557Z,20.71
2022-08-23T05:26:26.381Z,20.75
2022-08-23T05:26:58.331Z,20.77
2022-08-23T05:27:30.508Z,20.72
2022-08-23T05:28:03.417Z,20.72
2022-08-23T05:28:35.992Z,20.74
2022-08-23T05:29:08.148Z,20.79
2022-08-23T05:29:40.973Z,20.73
2022-08-23T05:30:15.362Z,20.82
2022-08-23T05:30:59.944Z,20.85
2022-08-23T05:31:34.752Z,20.80
2022-08-23T05:32:07.240Z,20.72
2022-08-23T05:32:39.536Z,20.71
2022-08-23T05:33:13.236Z,20.75
2022-08-23T05:33:46.378Z,20.75
2022-08-23T05:34:22.627Z,20.77
2022-08-23T05:34:55.874Z,20.79
2022-08-23T05:35:27.892Z,20.67
2022-08-23T05:36:01.869Z,20.63
2022-08-23T05:36:34.698Z,20.63
2022-08-23T05:37:06.734Z,20.71
2022-08-23T05:37:39.694Z,20.76
2022-08-23T05:38:11.660Z,20.80
2022-08-23T05:38:47.012Z,20.78
2022-08-23T05:39:26.372Z,20.74
2022-08-23T05:40:09.747Z,20.74
2022-08-23T05:40:43.107Z,20.79
2022-08-23T05:41:17.567Z,20.78
2022-08-23T05:41:49.797Z,20.79
2022-08-23T05:42:21.954Z,20.80
2022-08-23T05:42:54.523Z,20.80
2022-08-23T05:43:26.592Z,20.80
2022-08-23T05:43:58.585Z,20.86
2022-08-23T05:44:36.200Z,20.85
2022-08-23T05:45:09.791Z,20.82
2022-08-23T05:45:42.152Z,20.79
2022-08-23T05:46:20.894Z,20.77
2022-08-23T05:46:54.010Z,20.73
2022-08-23T05:47:28.336Z,20.57
2022-08-23T05:48:07.343Z,20.42
2022-08-23T05:48:43.349Z,20.34
2022-08-23T05:49:20.989Z,20.51
2022-08-23T05:49:53.629Z,20.53
2022-08-23T05:50:26.112Z,20.47
2022-08-23T05:51:07.606Z,20.60
2022-08-23T05:51:39.835Z,20.54
2022-08-23T05:52:13.923Z,20.45
2022-08-23T05:52:50.971Z,20.42
2022-08-23T05:53:23.883Z,20.37
2022-08-23T05:53:59.615Z,20.41
2022-08-23T05:54:31.919Z,20.46
2022-08-23T05:55:06.953Z,20.46
2022-08-23T05:55:40.538Z,20.45
2022-08-23T05:56:31.603Z,20.41
2022-08-23T05:57:05.420Z,20.45
2022-08-23T05:57:38.407Z,20.56
2022-08-23T05:58:10.732Z,20.51
2022-08-23T05:58:44.593Z,20.47
2022-08-23T05:59:17.128Z,20.40
2022-08-23T05:59:49.083Z,20.38
2022-08-23T06:00:22.192Z,20.46
2022-08-23T06:01:11.789Z,20.52
2022-08-23T06:01:45.109Z,20.57
2022-08-23T06:02:17.693Z,20.53
2022-08-23T06:02:50.363Z,20.49
2022-08-23T06:03:23.088Z,20.50
2022-08-23T06:04:00.470Z,20.53
2022-08-23T06:04:33.052Z,20.56
2022-08-23T06:05:05.757Z,20.58
2022-08-23T06:05:42.176Z,20.61
2022-08-23T06:06:17.115Z,20.63
2022-08-23T06:06:49.437Z,20.60
2022-08-23T06:07:21.774Z,20.61
2022-08-23T06:07:53.742Z,20.57
2022-08-23T06:08:26.506Z,20.54
2022-08-23T06:08:58.697Z,20.43
2022-08-23T06:09:31.834Z,20.41
2022-08-23T06:10:04.797Z,20.43
2022-08-23T06:10:41.690Z,20.45
2022-08-23T06:11:19.186Z,20.53
2022-08-23T06:11:51.167Z,20.50
2022-08-23T06:12:23.534Z,20.51
2022-08-23T06:12:56.174Z,20.39
2022-08-23T06:13:28.431Z,20.35
2022-08-23T06:14:03.315Z,20.38
2022-08-23T06:14:35.747Z,20.43
2022-08-23T06:15:08.122Z,20.50
2022-08-23T06:15:44.318Z,20.55
2022-08-23T06:16:18.994Z,20.58
2022-08-23T06:16:55.843Z,20.69
2022-08-23T06:17:28.688Z,20.67
2022-08-23T06:18:00.785Z,20.63
2022-08-23T06:18:33.526Z,20.60
2022-08-23T06:19:07.947Z,20.54
2022-08-23T06:19:42.294Z,20.65
2022-08-23T06:20:16.196Z,20.67
2022-08-23T06:21:07.732Z,20.61
2022-08-23T06:21:43.590Z,20.61
2022-08-23T06:22:15.622Z,20.61
2022-08-23T06:22:47.657Z,20.55
2022-08-23T06:23:19.557Z,20.53
2022-08-23T06:23:52.292Z,20.52
2022-08-23T06:24:26.624Z,20.57
2022-08-23T06:24:58.862Z,20.66
2022-08-23T06:25:32.253Z,20.66
2022-08-23T06:26:19.388Z,20.69
2022-08-23T06:26:51.776Z,20.70
2022-08-23T06:27:23.713Z,20.65
2022-08-23T06:27:56.753Z,20.65
2022-08-23T06:28:29.944Z,20.60
2022-08-23T06:29:06.329Z,20.49
2022-08-23T06:29:39.072Z,20.51
2022-08-23T06:30:27.365Z,20.51
2022-08-23T06:31:01.205Z,20.45
2022-08-23T06:31:47.123Z,20.53
2022-08-23T06:32:19.688Z,20.61
2022-08-23T06:32:52.933Z,20.67
2022-08-23T06:33:31.314Z,20.67
2022-08-23T06:34:05.456Z,20.67
2022-08-23T06:34:38.553Z,20.57
2022-08-23T06:35:33.109Z,20.56
2022-08-23T06:36:14.037Z,20.58
2022-08-23T06:36:49.595Z,20.64
2022-08-23T06:37:23.207Z,20.68
2022-08-23T06:37:57.096Z,20.77
2022-08-23T06:38:31.883Z,20.78
2022-08-23T06:39:08.467Z,20.86
2022-08-23T06:39:41.064Z,20.94
2022-08-23T06:40:13.695Z,20.90
2022-08-23T06:40:50.234Z,20.93
2022-08-23T06:41:22.612Z,20.87
2022-08-23T06:42:00.808Z,20.95
2022-08-23T06:42:40.211Z,21.02
2022-08-23T06:43:13.659Z,21.12
2022-08-23T06:43:51.647Z,21.13
2022-08-23T06:44:23.699Z,20.93
2022-08-23T06:44:56.440Z,21.06
2022-08-23T06:45:33.730Z,21.16
2022-08-23T06:46:20.261Z,21.17
2022-08-23T06:46:58.524Z,21.16
2022-08-23T06:47:31.688Z,21.21
2022-08-23T06:48:04.274Z,21.26
2022-08-23T06:48:37.035Z,21.33
2022-08-23T06:49:09.526Z,21.41
2022-08-23T06:49:41.717Z,21.46
2022-08-23T06:50:31.969Z,21.46
2022-08-23T06:51:20.941Z,21.54
2022-08-23T06:51:57.555Z,21.62
2022-08-23T06:52:29.954Z,21.67
2022-08-23T06:53:02.185Z,21.75
2022-08-23T06:53:40.351Z,21.82
2022-08-23T06:54:15.861Z,21.78
2022-08-23T06:54:48.566Z,21.94
2022-08-23T06:55:20.817Z,21.97
2022-08-23T06:55:54.972Z,21.94
2022-08-23T06:56:29.030Z,21.99
2022-08-23T06:57:03.097Z,22.02
2022-08-23T06:57:35.221Z,22.01
2022-08-23T06:58:09.361Z,21.94
2022-08-23T06:58:45.635Z,21.92
2022-08-23T06:59:19.095Z,21.80
2022-08-23T06:59:51.902Z,21.83
2022-08-23T07:00:24.731Z,21.89
2022-08-23T07:01:34.961Z,22.01
2022-08-23T07:02:08.486Z,22.01
2022-08-23T07:02:41.639Z,22.02
2022-08-23T07:03:16.987Z,22.01
2022-08-23T07:03:56.097Z,22.02
2022-08-23T07:04:38.203Z,22.06
2022-08-23T07:05:11.227Z,22.17
2022-08-23T07:05:43.264Z,22.23
2022-08-23T07:06:15.872Z,22.21
2022-08-23T07:06:48.664Z,22.23
2022-08-23T07:07:20.789Z,22.26
2022-08-23T07:07:52.760Z,22.30
2022-08-23T07:08:24.970Z,22.29
2022-08-23T07:08:58.948Z,22.26
2022-08-23T07:09:32.583Z,22.28
2022-08-23T07:10:06.147Z,22.33
2022-08-23T07:10:38.132Z,22.41
2022-08-23T07:11:11.334Z,22.36
2022-08-23T07:11:46.008Z,22.38
2022-08-23T07:12:19.975Z,22.45
2022-08-23T07:12:52.262Z,22.52
2022-08-23T07:13:24.684Z,22.54
2022-08-23T07:13:57.729Z,22.60
2022-08-23T07:14:30.636Z,22.70
2022-08-23T07:15:02.745Z,22.82
2022-08-23T07:15:34.668Z,22.80
2022-08-23T07:16:07.792Z,22.88
2022-08-23T07:16:56.702Z,22.86
2022-08-23T07:17:28.729Z,22.80
2022-08-23T07:18:00.966Z,22.77
2022-08-23T07:18:33.184Z,22.58
2022-08-23T07:19:05.552Z,22.60
2022-08-23T07:19:38.093Z,22.67
2022-08-23T07:20:10.259Z,22.67
2022-08-23T07:20:42.720Z,22.69
2022-08-23T07:21:14.851Z,22.64
2022-08-23T07:21:48.694Z,22.53
2022-08-23T07:22:21.766Z,22.56
2022-08-23T07:22:53.917Z,22.66
2022-08-23T07:23:26.944Z,22.63
2022-08-23T07:23:59.579Z,22.51
2022-08-23T07:24:33.816Z,22.53
2022-08-23T07:25:06.764Z,22.44
2022-08-23T07:25:40.536Z,22.53
2022-08-23T07:26:15.721Z,22.57
2022-08-23T07:26:50.430Z,22.62
2022-08-23T07:27:22.376Z,22.66
2022-08-23T07:27:55.591Z,22.64
2022-08-23T07:28:29.112Z,22.72
2022-08-23T07:29:04.235Z,22.75
2022-08-23T07:29:37.869Z,22.77
2022-08-23T07:30:10.484Z,22.80
2022-08-23T07:30:45.241Z,22.94